createdAt,value
2023-09-15T00:00:27.119Z,1.65
2023-09-15T00:05:31.002Z,1.80
2023-09-15T00:10:40.686Z,2.10
2023-09-15T00:15:44.135Z,2.33
2023-09-15T00:20:47.693Z,2.13
2023-09-15T00:25:55.869Z,1.90
2023-09-15T00:30:59.672Z,1.70
2023-09-15T00:36:04.093Z,1.70
2023-09-15T00:46:14.158Z,2.10
2023-09-15T00:51:17.751Z,2.40
2023-09-15T00:56:23.142Z,2.42
2023-09-15T01:01:27.785Z,2.20
2023-09-15T01:06:33.619Z,2.17
2023-09-15T01:11:38.992Z,2.00
2023-09-15T01:16:48.764Z,2.10
2023-09-15T01:22:13.760Z,1.92
2023-09-15T01:28:06.239Z,2.08
2023-09-15T01:33:14.617Z,1.73
2023-09-15T01:38:18.241Z,3.25
2023-09-15T01:43:22.352Z,1.92
2023-09-15T01:48:27.833Z,1.75
2023-09-15T01:58:35.028Z,2.63
2023-09-15T02:03:40.164Z,2.55
2023-09-15T02:08:43.996Z,1.98
2023-09-15T02:13:47.796Z,1.90
2023-09-15T02:18:52.508Z,2.20
2023-09-15T02:23:55.953Z,2.47
2023-09-15T02:28:59.370Z,2.38
2023-09-15T02:34:04.319Z,2.75
2023-09-15T02:39:07.766Z,1.95
2023-09-15T02:44:12.087Z,2.28
2023-09-15T02:49:17.190Z,2.90
2023-09-15T02:54:21.348Z,2.55
2023-09-15T02:59:27.394Z,2.03
2023-09-15T03:04:32.580Z,2.30
2023-09-15T03:09:38.458Z,2.63
2023-09-15T03:14:43.252Z,2.63
2023-09-15T03:19:48.323Z,2.30
2023-09-15T03:24:51.887Z,2.25
2023-09-15T03:29:55.877Z,2.80
2023-09-15T03:35:01.786Z,2.65
2023-09-15T03:40:12.699Z,2.80
2023-09-15T03:45:16.903Z,2.47
2023-09-15T03:50:22.994Z,2.80
2023-09-15T03:55:28.268Z,2.08
2023-09-15T04:00:31.808Z,2.67
2023-09-15T04:05:37.269Z,2.72
2023-09-15T04:10:40.743Z,2.53
2023-09-15T04:15:44.203Z,2.75
2023-09-15T04:20:51.510Z,2.72
2023-09-15T04:25:55.508Z,2.53
2023-09-15T04:30:59.092Z,3.35
2023-09-15T04:36:04.981Z,2.10
2023-09-15T04:46:12.768Z,3.10
2023-09-15T04:51:18.965Z,2.53
2023-09-15T05:01:26.422Z,2.58
2023-09-15T05:06:31.356Z,2.50
2023-09-15T05:11:35.779Z,3.13
2023-09-15T05:16:40.037Z,2.95
2023-09-15T05:21:44.988Z,3.47
2023-09-15T05:26:48.841Z,3.30
2023-09-15T05:31:52.900Z,3.63
2023-09-15T05:36:58.302Z,3.97
2023-09-15T05:47:05.807Z,3.75
2023-09-15T05:52:10.697Z,4.32
2023-09-15T05:57:14.434Z,4.85
2023-09-15T06:02:19.478Z,4.25
2023-09-15T06:07:24.856Z,4.40
2023-09-15T06:12:28.290Z,5.10
2023-09-15T06:17:31.727Z,7.05
2023-09-15T06:22:36.669Z,6.40
2023-09-15T06:32:44.296Z,4.20
2023-09-15T06:37:49.118Z,2.85
2023-09-15T06:42:52.573Z,2.88
2023-09-15T06:47:56.432Z,3.00
2023-09-15T06:53:01.563Z,3.15
2023-09-15T07:03:08.988Z,3.38
2023-09-15T07:08:14.159Z,3.47
2023-09-15T07:13:18.399Z,3.00
2023-09-15T07:18:22.496Z,4.07
2023-09-15T07:23:28.260Z,2.97
2023-09-15T07:28:31.843Z,3.75
2023-09-15T07:33:36.031Z,2.47
2023-09-15T07:38:41.203Z,3.17
2023-09-15T07:43:44.774Z,2.70
2023-09-15T07:48:48.214Z,3.47
2023-09-15T07:53:53.820Z,3.33
2023-09-15T07:58:58.103Z,3.15
2023-09-15T08:04:01.780Z,3.38
2023-09-15T08:09:06.751Z,3.13
2023-09-15T08:14:10.731Z,3.15
2023-09-15T08:19:14.476Z,2.83
2023-09-15T08:24:21.353Z,3.03
2023-09-15T08:29:25.254Z,2.47
2023-09-15T08:34:28.745Z,2.77
2023-09-15T08:39:33.696Z,2.55
2023-09-15T08:44:39.883Z,2.60
2023-09-15T08:49:44.551Z,1.92
2023-09-15T08:54:52.429Z,2.25
2023-09-15T08:59:56.948Z,2.05
2023-09-15T09:05:00.411Z,2.22
2023-09-15T09:10:06.611Z,2.40
2023-09-15T09:15:11.846Z,1.80
2023-09-15T09:20:25.599Z,1.95
2023-09-15T09:25:35.198Z,1.87
2023-09-15T09:30:38.928Z,2.13
2023-09-15T09:35:42.893Z,1.75
2023-09-15T09:40:47.797Z,1.40
2023-09-15T09:45:53.079Z,1.90
2023-09-15T09:50:56.919Z,1.60
2023-09-15T09:56:01.996Z,2.17
2023-09-15T10:01:07.708Z,1.75
2023-09-15T10:06:12.528Z,1.35
2023-09-15T10:11:17.852Z,1.55
2023-09-15T10:16:21.647Z,1.80
2023-09-15T10:26:32.106Z,1.85
2023-09-15T10:31:36.261Z,1.60
2023-09-15T10:36:42.513Z,1.75
2023-09-15T10:41:50.306Z,1.70
2023-09-15T10:46:54.272Z,1.67
2023-09-15T10:51:59.579Z,1.60
2023-09-15T10:57:05.133Z,1.67
2023-09-15T11:02:10.251Z,1.33
2023-09-15T11:07:15.082Z,1.52
2023-09-15T11:12:19.956Z,1.60
2023-09-15T11:17:24.619Z,1.75
2023-09-15T11:22:28.145Z,2.47
2023-09-15T11:27:34.673Z,1.67
2023-09-15T11:32:39.240Z,1.92
2023-09-15T11:37:43.042Z,1.60
2023-09-15T11:42:54.085Z,1.67
2023-09-15T11:48:00.276Z,1.70
2023-09-15T11:53:04.890Z,1.58
2023-09-15T11:58:10.195Z,2.40
2023-09-15T12:03:13.904Z,1.70
2023-09-15T12:08:19.432Z,1.75
2023-09-15T12:13:24.466Z,2.08
2023-09-15T12:18:28.142Z,1.80
2023-09-15T12:23:32.344Z,2.17
2023-09-15T12:28:40.022Z,1.85
2023-09-15T12:33:46.944Z,2.10
2023-09-15T12:38:57.331Z,1.65
2023-09-15T12:44:03.129Z,1.88
2023-09-15T12:49:07.837Z,1.73
2023-09-15T12:54:11.384Z,1.80
2023-09-15T12:59:16.393Z,1.80
2023-09-15T13:04:20.120Z,1.80
2023-09-15T13:09:25.832Z,1.90
2023-09-15T13:14:30.955Z,2.35
2023-09-15T13:19:34.400Z,1.58
2023-09-15T13:24:37.875Z,2.33
2023-09-15T13:29:42.967Z,2.28
2023-09-15T13:34:46.704Z,1.95
2023-09-15T13:39:51.593Z,2.10
2023-09-15T13:44:56.626Z,1.90
2023-09-15T13:50:01.310Z,2.30
2023-09-15T13:55:05.853Z,1.73
2023-09-15T14:00:11.692Z,1.95
2023-09-15T14:05:15.907Z,2.15
2023-09-15T14:10:20.440Z,1.60
2023-09-15T14:15:25.238Z,1.70
2023-09-15T14:20:29.093Z,1.70
2023-09-15T14:25:33.181Z,2.03
2023-09-15T14:30:38.190Z,1.70
2023-09-15T14:35:41.610Z,2.25
2023-09-15T14:40:45.131Z,1.73
2023-09-15T14:45:50.520Z,1.70
2023-09-15T14:50:54.835Z,1.60
2023-09-15T14:55:58.354Z,2.20
2023-09-15T15:01:03.267Z,1.80
2023-09-15T15:06:06.693Z,1.67
2023-09-15T15:11:10.370Z,1.60
2023-09-15T15:16:17.224Z,1.90
2023-09-15T15:21:21.539Z,1.75
2023-09-15T15:26:26.166Z,2.00
2023-09-15T15:31:31.191Z,1.80
2023-09-15T15:36:34.716Z,1.65
2023-09-15T15:41:38.247Z,1.80
2023-09-15T15:46:43.273Z,1.83
2023-09-15T15:51:46.765Z,1.85
2023-09-15T15:56:50.763Z,2.40
2023-09-15T16:01:56.043Z,1.97
2023-09-15T16:06:59.776Z,1.92
2023-09-15T16:12:03.632Z,2.28
2023-09-15T16:17:08.653Z,2.30
2023-09-15T16:22:12.120Z,2.63
2023-09-15T16:27:15.723Z,2.45
2023-09-15T16:32:20.570Z,2.55
2023-09-15T16:42:28.926Z,2.55
2023-09-15T16:47:34.325Z,1.88
2023-09-15T16:52:37.720Z,2.50
2023-09-15T16:57:41.342Z,3.60
2023-09-15T17:02:46.258Z,2.90
2023-09-15T17:12:53.249Z,2.10
2023-09-15T17:17:59.390Z,2.53
2023-09-15T17:23:04.913Z,2.53
2023-09-15T17:28:09.680Z,2.30
2023-09-15T17:33:14.551Z,2.63
2023-09-15T17:38:18.214Z,2.30
2023-09-15T17:43:22.380Z,2.13
2023-09-15T17:48:27.496Z,2.30
2023-09-15T17:53:31.187Z,2.38
2023-09-15T17:58:34.812Z,2.45
2023-09-15T18:03:39.803Z,2.83
2023-09-15T18:08:43.364Z,3.10
2023-09-15T18:13:47.345Z,3.10
2023-09-15T18:18:52.490Z,2.95
2023-09-15T18:23:56.477Z,3.38
2023-09-15T18:29:01.085Z,3.00
2023-09-15T18:34:06.118Z,3.10
2023-09-15T18:39:10.102Z,2.78
2023-09-15T18:44:13.638Z,3.17
2023-09-15T18:49:18.466Z,3.00
2023-09-15T18:54:25.496Z,3.42
2023-09-15T18:59:29.882Z,3.03
2023-09-15T19:04:35.550Z,2.65
2023-09-15T19:09:39.240Z,3.05
2023-09-15T19:14:44.284Z,3.20
2023-09-15T19:24:53.104Z,2.60
2023-09-15T19:29:57.813Z,2.72
2023-09-15T19:35:02.751Z,2.75
2023-09-15T19:40:07.644Z,2.83
2023-09-15T19:45:13.412Z,2.65
2023-09-15T19:50:20.315Z,2.60
2023-09-15T19:55:23.993Z,2.42
2023-09-15T20:00:27.985Z,2.60
2023-09-15T20:05:33.851Z,3.10
2023-09-15T20:10:37.781Z,3.20
2023-09-15T20:15:41.710Z,2.38
2023-09-15T20:20:47.269Z,2.58
2023-09-15T20:25:50.912Z,2.50
2023-09-15T20:30:54.487Z,3.22
2023-09-15T20:35:59.573Z,2.58
2023-09-15T20:41:04.657Z,2.33
2023-09-15T20:46:08.475Z,3.40
2023-09-15T20:51:13.646Z,4.03
2023-09-15T20:56:17.119Z,3.53
2023-09-15T21:01:20.616Z,2.80
2023-09-15T21:06:25.507Z,2.47
2023-09-15T21:11:29.000Z,2.95
2023-09-15T21:16:32.640Z,2.50
2023-09-15T21:21:37.996Z,2.60
2023-09-15T21:26:42.088Z,2.38
2023-09-15T21:31:45.911Z,3.00
2023-09-15T21:36:52.091Z,2.80
2023-09-15T21:41:55.700Z,2.22
2023-09-15T21:46:59.660Z,2.25
2023-09-15T21:52:05.896Z,2.45
2023-09-15T21:57:09.516Z,2.88
2023-09-15T22:02:15.133Z,2.20
2023-09-15T22:07:22.051Z,2.17
2023-09-15T22:12:25.511Z,1.92
2023-09-15T22:17:28.999Z,2.30
2023-09-15T22:22:34.723Z,2.17
2023-09-15T22:27:39.378Z,2.00
2023-09-15T22:32:43.053Z,2.22
2023-09-15T22:37:47.863Z,2.33
2023-09-15T22:42:52.196Z,2.42
2023-09-15T22:47:58.567Z,2.17
2023-09-15T22:53:04.332Z,2.30
2023-09-15T23:03:11.337Z,2.22
2023-09-15T23:08:16.145Z,2.17
2023-09-15T23:13:20.238Z,2.60
2023-09-15T23:18:23.938Z,2.13
2023-09-15T23:23:29.386Z,2.45
2023-09-15T23:28:32.853Z,1.98
2023-09-15T23:33:39.077Z,2.38
2023-09-15T23:38:43.865Z,2.33
2023-09-15T23:43:47.283Z,2.10
2023-09-15T23:48:52.557Z,2.67
2023-09-15T23:53:57.738Z,2.15
2023-09-15T23:59:01.183Z,2.95
